createdAt,value
2019-04-06T00:01:11.789Z,21.93
2019-04-06T00:03:40.258Z,23.00
2019-04-06T00:06:08.730Z,22.60
2019-04-06T00:08:37.212Z,20.27
2019-04-06T00:11:06.127Z,20.97
2019-04-06T00:13:34.568Z,21.47
2019-04-06T00:16:03.183Z,21.97
2019-04-06T00:18:31.633Z,21.83
2019-04-06T00:21:00.110Z,21.67
2019-04-06T00:23:28.562Z,20.77
2019-04-06T00:25:57.101Z,22.47
2019-04-06T00:28:25.670Z,21.77
2019-04-06T00:31:07.917Z,23.13
2019-04-06T00:33:36.481Z,22.27
2019-04-06T00:36:04.988Z,21.90
2019-04-06T00:38:33.945Z,21.57
2019-04-06T00:41:02.522Z,23.43
2019-04-06T00:43:31.009Z,22.07
2019-04-06T00:45:59.476Z,22.57
2019-04-06T00:48:27.961Z,21.30
2019-04-06T00:50:56.441Z,23.03
2019-04-06T00:53:24.892Z,21.80
2019-04-06T00:55:55.765Z,22.70
2019-04-06T00:58:23.562Z,22.97
2019-04-06T01:00:52.389Z,22.60
2019-04-06T01:03:20.862Z,23.23
2019-04-06T01:05:49.325Z,23.17
2019-04-06T01:08:17.824Z,21.13
2019-04-06T01:10:46.271Z,23.40
2019-04-06T01:13:14.713Z,22.27
2019-04-06T01:15:43.203Z,21.23
2019-04-06T01:18:11.755Z,20.43
2019-04-06T01:20:40.216Z,21.47
2019-04-06T01:23:08.776Z,21.50
2019-04-06T01:25:37.307Z,22.47
2019-04-06T01:28:05.796Z,21.20
2019-04-06T01:30:34.282Z,25.07
2019-04-06T01:33:02.735Z,23.60
2019-04-06T01:35:31.188Z,21.23
2019-04-06T01:37:59.671Z,21.83
2019-04-06T01:40:28.159Z,23.73
2019-04-06T01:42:56.638Z,21.67
2019-04-06T01:45:25.119Z,23.50
2019-04-06T01:47:54.044Z,22.60
2019-04-06T01:50:22.525Z,24.30
2019-04-06T01:52:50.958Z,24.03
2019-04-06T01:55:19.418Z,23.03
2019-04-06T01:57:47.863Z,22.33
2019-04-06T02:00:16.580Z,23.67
2019-04-06T02:02:52.752Z,22.83
2019-04-06T02:05:21.231Z,24.13
2019-04-06T02:07:50.276Z,23.53
2019-04-06T02:10:18.897Z,22.90
2019-04-06T02:12:47.444Z,22.80
2019-04-06T02:15:16.033Z,22.87
2019-04-06T02:17:44.507Z,24.37
2019-04-06T02:20:13.018Z,23.70
2019-04-06T02:22:41.506Z,22.67
2019-04-06T02:25:10.047Z,24.90
2019-04-06T02:27:38.497Z,24.97
2019-04-06T02:30:22.242Z,24.90
2019-04-06T02:32:58.105Z,24.67
2019-04-06T02:35:28.289Z,24.07
2019-04-06T02:38:04.407Z,24.10
2019-04-06T02:40:34.546Z,22.90
2019-04-06T02:43:04.667Z,24.30
2019-04-06T02:45:33.443Z,24.50
2019-04-06T02:48:02.078Z,26.90
2019-04-06T02:50:30.603Z,25.93
2019-04-06T02:52:59.375Z,25.03
2019-04-06T02:55:27.933Z,26.00
2019-04-06T02:57:56.658Z,23.17
2019-04-06T03:00:25.311Z,25.80
2019-04-06T03:02:53.880Z,25.00
2019-04-06T03:05:22.441Z,23.93
2019-04-06T03:07:51.085Z,25.37
2019-04-06T03:10:19.700Z,25.00
2019-04-06T03:12:48.388Z,24.80
2019-04-06T03:15:16.883Z,27.63
2019-04-06T03:17:45.388Z,26.47
2019-04-06T03:20:14.677Z,25.30
2019-04-06T03:22:43.178Z,26.80
2019-04-06T03:25:12.010Z,24.43
2019-04-06T03:27:40.719Z,27.20
2019-04-06T03:30:09.859Z,27.43
2019-04-06T03:32:38.349Z,25.83
2019-04-06T03:35:07.132Z,24.27
2019-04-06T03:37:35.801Z,26.27
2019-04-06T03:40:05.465Z,24.70
2019-04-06T03:42:34.040Z,26.80
2019-04-06T03:45:02.879Z,26.67
2019-04-06T03:47:32.175Z,28.10
2019-04-06T03:50:00.674Z,25.60
2019-04-06T03:52:29.608Z,27.03
2019-04-06T03:54:58.425Z,27.67
2019-04-06T03:57:26.905Z,26.90
2019-04-06T03:59:55.603Z,28.03
2019-04-06T04:02:24.455Z,27.23
2019-04-06T04:04:52.955Z,26.40
2019-04-06T04:07:21.443Z,28.23
2019-04-06T04:09:49.991Z,26.07
2019-04-06T04:12:18.651Z,27.57
2019-04-06T04:14:47.254Z,25.13
2019-04-06T04:17:15.679Z,25.63
2019-04-06T04:19:44.165Z,27.53
2019-04-06T04:22:12.844Z,28.40
2019-04-06T04:24:41.517Z,27.80
2019-04-06T04:27:10.042Z,27.67
2019-04-06T04:29:38.531Z,29.07
2019-04-06T04:32:07.212Z,30.83
2019-04-06T04:34:35.674Z,29.37
2019-04-06T04:37:04.322Z,27.33
2019-04-06T04:39:32.870Z,29.67
2019-04-06T04:42:01.563Z,29.70
2019-04-06T04:44:30.515Z,28.10
2019-04-06T04:46:58.978Z,29.50
2019-04-06T04:49:27.594Z,30.43
2019-04-06T04:51:56.068Z,27.97
2019-04-06T04:54:24.728Z,31.53
2019-04-06T04:56:53.255Z,28.10
2019-04-06T04:59:21.726Z,26.80
2019-04-06T05:01:50.342Z,26.93
2019-04-06T05:04:18.819Z,27.50
2019-04-06T05:06:47.290Z,25.33
2019-04-06T05:09:17.385Z,25.20
2019-04-06T05:11:45.921Z,27.90
2019-04-06T05:14:43.197Z,26.00
2019-04-06T05:17:11.684Z,24.67
2019-04-06T05:19:40.158Z,21.53
2019-04-06T05:22:08.716Z,23.80
2019-04-06T05:24:37.521Z,21.63
2019-04-06T05:27:06.142Z,21.57
2019-04-06T05:29:34.622Z,21.33
2019-04-06T05:32:03.087Z,20.93
2019-04-06T05:34:31.558Z,23.13
2019-04-06T05:37:00.016Z,20.47
2019-04-06T05:39:28.488Z,21.93
2019-04-06T05:41:57.043Z,21.73
2019-04-06T05:44:25.536Z,21.87
2019-04-06T05:46:54.782Z,21.70
2019-04-06T05:49:23.985Z,21.47
2019-04-06T05:51:56.739Z,20.67
2019-04-06T05:54:25.485Z,23.17
2019-04-06T05:56:56.311Z,21.30
2019-04-06T05:59:24.599Z,21.17
2019-04-06T06:01:53.364Z,22.57
2019-04-06T06:04:22.021Z,19.70
2019-04-06T06:06:50.582Z,20.90
2019-04-06T06:09:19.053Z,20.50
2019-04-06T06:11:47.668Z,20.60
2019-04-06T06:14:16.257Z,19.93
2019-04-06T06:16:44.841Z,22.30
2019-04-06T06:19:13.309Z,20.77
2019-04-06T06:21:41.752Z,19.03
2019-04-06T06:24:10.366Z,18.43
2019-04-06T06:26:38.866Z,21.33
2019-04-06T06:29:07.349Z,19.93
2019-04-06T06:31:36.211Z,21.90
2019-04-06T06:34:05.303Z,20.97
2019-04-06T06:36:33.856Z,20.40
2019-04-06T06:39:02.415Z,21.10
2019-04-06T06:41:31.025Z,21.50
2019-04-06T06:43:59.684Z,23.37
2019-04-06T06:46:28.266Z,21.13
2019-04-06T06:48:56.736Z,21.57
2019-04-06T06:51:25.358Z,21.57
2019-04-06T06:53:53.860Z,21.80
2019-04-06T06:56:22.339Z,21.20
2019-04-06T06:58:50.941Z,21.03
2019-04-06T07:01:19.607Z,21.10
2019-04-06T07:03:48.172Z,20.50
2019-04-06T07:06:16.624Z,23.37
2019-04-06T07:08:45.160Z,22.07
2019-04-06T07:11:13.635Z,22.47
2019-04-06T07:13:42.195Z,21.70
2019-04-06T07:16:10.745Z,22.33
2019-04-06T07:18:39.264Z,24.70
2019-04-06T07:21:07.997Z,25.27
2019-04-06T07:23:36.573Z,27.97
2019-04-06T07:26:05.186Z,25.63
2019-04-06T07:28:38.158Z,26.80
2019-04-06T07:31:04.105Z,26.50
2019-04-06T07:33:32.738Z,26.73
2019-04-06T07:36:01.232Z,27.03
2019-04-06T07:38:29.712Z,26.60
2019-04-06T07:40:58.227Z,28.23
2019-04-06T07:43:26.708Z,28.67
2019-04-06T07:45:55.169Z,27.00
2019-04-06T07:48:23.626Z,26.77
2019-04-06T07:50:52.115Z,27.47
2019-04-06T07:53:20.622Z,26.53
2019-04-06T07:55:49.067Z,26.50
2019-04-06T07:58:17.526Z,27.30
2019-04-06T08:00:46.195Z,24.83
2019-04-06T08:03:14.804Z,24.90
2019-04-06T08:05:43.303Z,24.43
2019-04-06T08:08:11.790Z,27.53
2019-04-06T08:10:40.357Z,26.00
2019-04-06T08:13:17.619Z,25.90
2019-04-06T08:15:46.354Z,22.90
2019-04-06T08:18:14.852Z,25.50
2019-04-06T08:20:43.385Z,24.10
2019-04-06T08:23:12.004Z,22.93
2019-04-06T08:25:40.547Z,21.43
2019-04-06T08:28:09.293Z,24.63
2019-04-06T08:30:45.464Z,22.67
2019-04-06T08:33:08.194Z,23.37
2019-04-06T08:35:36.853Z,24.80
2019-04-06T08:38:05.427Z,24.17
2019-04-06T08:40:34.154Z,24.97
2019-04-06T08:43:02.843Z,25.03
2019-04-06T08:45:31.332Z,24.40
2019-04-06T08:47:59.876Z,27.07
2019-04-06T08:50:28.350Z,26.10
2019-04-06T08:52:56.841Z,25.70
2019-04-06T08:55:25.719Z,26.00
2019-04-06T08:57:54.472Z,24.70
2019-04-06T09:00:23.074Z,24.33
2019-04-06T09:02:51.836Z,25.10
2019-04-06T09:05:20.330Z,26.10
2019-04-06T09:07:48.876Z,25.27
2019-04-06T09:10:17.519Z,26.00
2019-04-06T09:12:46.285Z,24.43
2019-04-06T09:15:17.013Z,26.50
2019-04-06T09:17:45.828Z,25.40
2019-04-06T09:20:14.604Z,24.40
2019-04-06T09:22:43.093Z,25.00
2019-04-06T09:25:11.720Z,24.07
2019-04-06T09:27:40.177Z,26.30
2019-04-06T09:30:09.221Z,26.60
2019-04-06T09:32:37.868Z,26.33
2019-04-06T09:35:06.479Z,23.97
2019-04-06T09:37:34.927Z,26.73
2019-04-06T09:40:04.847Z,25.27
2019-04-06T09:42:33.368Z,24.80
2019-04-06T09:45:03.764Z,26.30
2019-04-06T09:47:51.972Z,24.90
2019-04-06T09:50:24.795Z,24.63
2019-04-06T09:52:54.944Z,25.00
2019-04-06T09:55:37.292Z,25.10
2019-04-06T09:58:22.535Z,25.10
2019-04-06T10:01:09.053Z,25.00
2019-04-06T10:03:55.442Z,25.57
2019-04-06T10:06:28.327Z,25.40
2019-04-06T10:09:01.411Z,23.33
2019-04-06T10:11:46.869Z,23.57
2019-04-06T10:14:29.494Z,24.77
2019-04-06T10:17:18.271Z,23.93
2019-04-06T10:19:48.410Z,24.13
2019-04-06T10:22:18.631Z,23.80
2019-04-06T10:24:51.695Z,22.10
2019-04-06T10:27:38.047Z,22.27
2019-04-06T10:30:25.797Z,23.67
2019-04-06T10:33:04.962Z,22.93
2019-04-06T10:35:35.412Z,20.63
2019-04-06T10:38:23.932Z,20.73
2019-04-06T10:41:03.365Z,20.30
2019-04-06T10:43:48.951Z,20.37
2019-04-06T10:46:35.540Z,22.50
2019-04-06T10:49:05.718Z,23.33
2019-04-06T10:51:35.852Z,21.97
2019-04-06T10:54:15.207Z,23.33
2019-04-06T10:56:54.585Z,24.13
2019-04-06T10:59:24.774Z,24.23
2019-04-06T11:02:03.653Z,23.40
2019-04-06T11:04:42.845Z,22.10
2019-04-06T11:07:31.175Z,24.57
2019-04-06T11:10:07.074Z,23.33
2019-04-06T11:12:37.209Z,22.93
2019-04-06T11:15:24.875Z,23.13
2019-04-06T11:18:07.024Z,23.43
2019-04-06T11:20:39.905Z,21.77
2019-04-06T11:23:18.904Z,22.20
2019-04-06T11:26:05.253Z,23.40
2019-04-06T11:28:41.267Z,23.23
2019-04-06T11:31:11.400Z,21.97
2019-04-06T11:33:53.488Z,21.60
2019-04-06T11:36:32.922Z,22.53
2019-04-06T11:39:05.806Z,23.40
2019-04-06T11:41:39.017Z,18.00
2019-04-06T11:44:12.119Z,23.20
2019-04-06T11:46:42.327Z,22.70
2019-04-06T11:49:12.467Z,21.90
2019-04-06T11:51:42.600Z,21.80
2019-04-06T11:54:18.225Z,19.63
2019-04-06T11:56:48.592Z,18.53
2019-04-06T11:59:24.996Z,19.83
2019-04-06T12:02:04.073Z,21.00
2019-04-06T12:04:39.868Z,21.30
2019-04-06T12:07:10.214Z,19.03
2019-04-06T12:09:49.259Z,24.50
2019-04-06T12:12:19.397Z,22.87
2019-04-06T12:15:04.934Z,22.10
2019-04-06T12:17:35.528Z,24.03
2019-04-06T12:20:24.344Z,19.73
2019-04-06T12:23:09.460Z,21.03
2019-04-06T12:25:54.845Z,22.40
2019-04-06T12:28:27.658Z,21.90
2019-04-06T12:31:03.538Z,19.27
2019-04-06T12:33:36.579Z,20.13
2019-04-06T12:36:06.849Z,21.03
2019-04-06T12:38:55.200Z,22.40
2019-04-06T12:41:34.537Z,21.77
2019-04-06T12:44:10.572Z,19.80
2019-04-06T12:46:52.962Z,19.53
2019-04-06T12:49:35.302Z,19.83
2019-04-06T12:52:21.643Z,19.80
2019-04-06T12:54:57.595Z,19.63
2019-04-06T12:57:30.440Z,16.90
2019-04-06T13:00:00.660Z,18.00
2019-04-06T13:02:46.664Z,18.37
2019-04-06T13:05:19.451Z,19.50
2019-04-06T13:07:58.514Z,19.43
2019-04-06T13:10:40.483Z,17.00
2019-04-06T13:13:26.746Z,18.40
2019-04-06T13:15:57.152Z,17.97
2019-04-06T13:18:30.340Z,17.10
2019-04-06T13:21:00.476Z,18.30
2019-04-06T13:23:46.760Z,15.87
2019-04-06T13:26:32.216Z,16.30
2019-04-06T13:29:05.146Z,16.83
2019-04-06T13:31:50.578Z,16.43
2019-04-06T13:34:23.130Z,16.00
2019-04-06T13:36:56.245Z,16.13
2019-04-06T13:39:32.467Z,17.20
2019-04-06T13:42:19.299Z,17.20
2019-04-06T13:44:55.322Z,16.73
2019-04-06T13:47:28.366Z,14.30
2019-04-06T13:50:04.780Z,15.43
2019-04-06T13:52:37.656Z,19.57
2019-04-06T13:55:25.466Z,18.20
2019-04-06T13:58:04.416Z,19.40
2019-04-06T14:00:50.774Z,19.97
2019-04-06T14:03:26.879Z,18.30
2019-04-06T14:06:02.768Z,20.60
2019-04-06T14:08:35.701Z,17.97
2019-04-06T14:11:11.506Z,19.30
2019-04-06T14:13:47.699Z,20.00
2019-04-06T14:16:35.969Z,17.23
2019-04-06T14:19:06.070Z,18.73
2019-04-06T14:21:42.232Z,19.57
2019-04-06T14:24:28.480Z,17.53
2019-04-06T14:27:05.061Z,19.07
2019-04-06T14:29:40.931Z,16.90
2019-04-06T14:32:11.117Z,17.70
2019-04-06T14:34:58.030Z,17.00
2019-04-06T14:37:28.484Z,16.93
2019-04-06T14:39:58.838Z,16.63
2019-04-06T14:42:45.214Z,17.37
2019-04-06T14:45:21.350Z,17.67
2019-04-06T14:47:51.465Z,17.80
2019-04-06T14:50:34.192Z,17.87
2019-04-06T14:53:07.236Z,17.40
2019-04-06T14:55:40.167Z,18.80
2019-04-06T14:58:31.403Z,17.67
2019-04-06T15:01:17.726Z,17.53
2019-04-06T15:03:56.891Z,16.70
2019-04-06T15:06:43.701Z,19.10
2019-04-06T15:09:20.183Z,16.90
2019-04-06T15:12:02.176Z,17.40
2019-04-06T15:14:48.435Z,16.23
2019-04-06T15:17:30.635Z,15.67
2019-04-06T15:20:03.766Z,15.83
2019-04-06T15:22:39.571Z,15.30
2019-04-06T15:25:09.713Z,13.77
2019-04-06T15:27:45.505Z,15.97
2019-04-06T15:30:30.956Z,14.63
2019-04-06T15:33:01.055Z,18.40
2019-04-06T15:35:31.248Z,15.40
2019-04-06T15:38:19.639Z,17.70
2019-04-06T15:40:49.767Z,15.43
2019-04-06T15:43:22.515Z,15.50
2019-04-06T15:45:55.299Z,17.37
2019-04-06T15:48:41.880Z,16.87
2019-04-06T15:51:14.783Z,17.30
2019-04-06T15:54:01.471Z,16.33
2019-04-06T15:56:34.671Z,19.60
2019-04-06T15:59:21.083Z,18.57
2019-04-06T16:02:03.443Z,19.07
2019-04-06T16:04:42.950Z,19.00
2019-04-06T16:07:15.453Z,19.43
2019-04-06T16:09:48.306Z,18.73
2019-04-06T16:12:24.973Z,18.63
2019-04-06T16:15:11.738Z,17.20
2019-04-06T16:17:50.785Z,16.20
2019-04-06T16:20:30.139Z,17.57
2019-04-06T16:23:03.346Z,16.80
2019-04-06T16:25:51.394Z,15.40
2019-04-06T16:28:21.527Z,15.33
2019-04-06T16:31:06.611Z,15.57
2019-04-06T16:33:53.234Z,15.30
2019-04-06T16:36:23.389Z,14.30
2019-04-06T16:38:59.316Z,12.90
2019-04-06T16:41:32.086Z,13.80
2019-04-06T16:44:14.255Z,14.20
2019-04-06T16:46:59.484Z,14.57
2019-04-06T16:49:32.266Z,13.20
2019-04-06T16:52:08.106Z,13.23
2019-04-06T16:54:41.209Z,13.00
2019-04-06T16:57:23.848Z,13.93
2019-04-06T16:59:54.098Z,12.70
2019-04-06T17:02:27.125Z,14.07
2019-04-06T17:05:00.150Z,12.50
2019-04-06T17:07:30.249Z,13.17
2019-04-06T17:10:00.416Z,12.33
2019-04-06T17:12:43.940Z,13.37
2019-04-06T17:15:20.526Z,12.43
2019-04-06T17:17:50.662Z,13.40
2019-04-06T17:20:37.172Z,11.67
2019-04-06T17:23:23.789Z,10.73
2019-04-06T17:25:53.934Z,11.67
2019-04-06T17:28:26.979Z,11.83
2019-04-06T17:31:00.219Z,13.27
2019-04-06T17:33:36.347Z,12.97
2019-04-06T17:36:22.529Z,12.33
2019-04-06T17:38:55.644Z,12.10
2019-04-06T17:41:40.720Z,12.37
2019-04-06T17:44:10.953Z,10.90
2019-04-06T17:46:59.133Z,11.40
2019-04-06T17:49:47.296Z,11.30
2019-04-06T17:52:20.732Z,11.40
2019-04-06T17:54:51.377Z,10.97
2019-04-06T17:57:21.628Z,11.43
2019-04-06T17:59:51.750Z,11.57
2019-04-06T18:02:22.223Z,11.33
2019-04-06T18:04:57.914Z,11.13
2019-04-06T18:07:45.798Z,12.13
2019-04-06T18:10:16.078Z,11.50
2019-04-06T18:13:08.859Z,12.20
2019-04-06T18:15:37.365Z,12.00
2019-04-06T18:18:05.895Z,11.87
2019-04-06T18:20:34.448Z,11.53
2019-04-06T18:23:02.972Z,11.70
2019-04-06T18:25:31.474Z,11.90
2019-04-06T18:28:00.530Z,11.70
2019-04-06T18:30:29.437Z,13.00
2019-04-06T18:33:02.911Z,12.70
2019-04-06T18:35:29.961Z,12.97
2019-04-06T18:38:06.020Z,12.47
2019-04-06T18:40:34.516Z,12.90
2019-04-06T18:43:03.205Z,14.07
2019-04-06T18:45:32.250Z,13.00
2019-04-06T18:48:00.957Z,11.00
2019-04-06T18:50:36.696Z,12.13
2019-04-06T18:52:59.781Z,12.77
2019-04-06T18:55:28.298Z,12.30
2019-04-06T18:58:07.879Z,12.33
2019-04-06T19:00:27.432Z,11.87
2019-04-06T19:02:55.951Z,11.47
2019-04-06T19:05:24.460Z,11.07
2019-04-06T19:07:53.028Z,12.10
2019-04-06T19:10:22.038Z,12.67
2019-04-06T19:12:51.085Z,11.47
2019-04-06T19:15:19.789Z,12.93
2019-04-06T19:17:48.450Z,11.10
2019-04-06T19:20:16.994Z,13.00
2019-04-06T19:22:45.448Z,13.53
2019-04-06T19:25:14.456Z,12.70
2019-04-06T19:27:43.209Z,12.93
2019-04-06T19:30:12.737Z,12.43
2019-04-06T19:32:41.386Z,11.57
2019-04-06T19:35:10.567Z,11.90
2019-04-06T19:37:39.483Z,11.43
2019-04-06T19:40:09.017Z,12.33
2019-04-06T19:42:37.569Z,12.93
2019-04-06T19:45:07.836Z,11.90
2019-04-06T19:47:36.406Z,12.20
2019-04-06T19:50:09.557Z,13.63
2019-04-06T19:52:38.105Z,12.63
2019-04-06T19:55:07.604Z,12.87
2019-04-06T19:57:36.192Z,14.70
2019-04-06T20:00:06.837Z,13.73
2019-04-06T20:02:35.423Z,12.30
2019-04-06T20:05:06.534Z,14.13
2019-04-06T20:07:35.552Z,12.53
2019-04-06T20:10:06.467Z,13.23
2019-04-06T20:12:36.019Z,12.70
2019-04-06T20:15:07.498Z,13.70
2019-04-06T20:17:36.127Z,12.97
2019-04-06T20:20:06.676Z,12.90
2019-04-06T20:22:35.321Z,12.90
2019-04-06T20:25:06.060Z,12.80
2019-04-06T20:27:34.524Z,12.10
2019-04-06T20:30:05.614Z,13.77
2019-04-06T20:32:34.423Z,14.00
2019-04-06T20:35:03.358Z,14.07
2019-04-06T20:37:31.893Z,13.83
2019-04-06T20:40:00.468Z,14.23
2019-04-06T20:42:29.211Z,14.60
2019-04-06T20:44:58.102Z,15.13
2019-04-06T20:47:26.750Z,12.90
2019-04-06T20:49:55.243Z,14.23
2019-04-06T20:52:24.145Z,14.70
2019-04-06T20:54:52.679Z,14.40
2019-04-06T20:57:21.161Z,13.67
2019-04-06T20:59:50.156Z,13.57
2019-04-06T21:02:19.273Z,14.17
2019-04-06T21:04:48.319Z,14.10
2019-04-06T21:07:16.983Z,13.90
2019-04-06T21:09:45.495Z,13.30
2019-04-06T21:12:14.011Z,16.27
2019-04-06T21:14:43.629Z,15.17
2019-04-06T21:17:12.283Z,14.20
2019-04-06T21:19:40.775Z,14.70
2019-04-06T21:22:09.219Z,14.27
2019-04-06T21:24:37.847Z,15.57
2019-04-06T21:27:06.650Z,14.60
2019-04-06T21:29:35.226Z,15.20
2019-04-06T21:32:03.735Z,14.87
2019-04-06T21:34:32.738Z,14.70
2019-04-06T21:37:01.966Z,15.37
2019-04-06T21:39:30.733Z,13.67
2019-04-06T21:41:59.696Z,15.50
2019-04-06T21:44:28.299Z,14.87
2019-04-06T21:46:57.419Z,14.40
2019-04-06T21:49:26.590Z,15.47
2019-04-06T21:51:55.286Z,14.67
2019-04-06T21:54:23.993Z,16.93
2019-04-06T21:56:52.516Z,16.00
2019-04-06T21:59:20.983Z,17.40
2019-04-06T22:01:50.255Z,15.80
2019-04-06T22:04:25.984Z,15.80
2019-04-06T22:06:49.082Z,14.10
2019-04-06T22:09:17.617Z,15.90
2019-04-06T22:11:46.245Z,15.50
2019-04-06T22:14:14.880Z,16.07
2019-04-06T22:16:43.367Z,15.60
2019-04-06T22:19:12.064Z,15.90
2019-04-06T22:21:40.596Z,15.20
2019-04-06T22:24:09.531Z,16.27
2019-04-06T22:26:38.352Z,15.73
2019-04-06T22:29:06.816Z,15.37
2019-04-06T22:31:35.875Z,16.50
2019-04-06T22:34:04.909Z,18.17
2019-04-06T22:36:33.465Z,18.27
2019-04-06T22:39:01.954Z,17.47
2019-04-06T22:41:31.068Z,18.60
2019-04-06T22:43:59.628Z,18.53
2019-04-06T22:46:28.101Z,19.20
2019-04-06T22:48:56.566Z,18.37
2019-04-06T22:51:25.010Z,19.20
2019-04-06T22:53:53.513Z,19.40
2019-04-06T22:56:22.596Z,17.47
2019-04-06T22:58:51.601Z,19.63
2019-04-06T23:01:21.947Z,20.17
2019-04-06T23:04:04.145Z,24.23
2019-04-06T23:06:37.209Z,22.90
2019-04-06T23:09:07.915Z,24.73
2019-04-06T23:11:36.650Z,21.20
2019-04-06T23:14:05.327Z,22.10
2019-04-06T23:16:34.141Z,23.33
2019-04-06T23:19:02.730Z,22.63
2019-04-06T23:21:31.659Z,21.10
2019-04-06T23:24:03.065Z,20.57
2019-04-06T23:26:30.691Z,19.60
2019-04-06T23:28:59.611Z,16.00
2019-04-06T23:31:28.128Z,16.53
2019-04-06T23:33:56.570Z,18.50
2019-04-06T23:36:25.056Z,18.67
2019-04-06T23:38:54.067Z,19.13
2019-04-06T23:41:22.795Z,20.27
2019-04-06T23:43:51.775Z,18.63
2019-04-06T23:46:20.353Z,19.47
2019-04-06T23:48:48.799Z,19.60
2019-04-06T23:51:17.295Z,20.33
2019-04-06T23:53:45.743Z,20.07
2019-04-06T23:56:14.894Z,20.30
2019-04-06T23:58:43.397Z,20.40
